Time;durP1;ratioP1;P1;durP2;ratioP2;P2;SDS_P1;SDS_P2;PMS_P1;PMS_P2;Temp;Humidity;BMP_temperature;BMP_pressure;BME280_temperature;BME280_humidity;BME280_pressure;Samples;Min_cycle;Max_cycle;Signal;HPM_P1;HPM_P2
2023/06/10 00:01:49;;;;;;;4.30;2.58;;;15.70;71.60;;;;;;4988919;28;20104;-68
2023/06/10 00:04:16;;;;;;;8.30;3.05;;;15.70;72.70;;;;;;5006079;28;20049;-68
2023/06/10 00:06:48;;;;;;;7.10;3.15;;;15.70;73.70;;;;;;4991061;28;20468;-69
2023/06/10 00:09:14;;;;;;;4.15;2.88;;;15.70;74.10;;;;;;4988994;28;20447;-69
2023/06/10 00:11:40;;;;;;;4.38;2.72;;;15.70;72.50;;;;;;4974652;28;20504;-68
2023/06/10 00:14:07;;;;;;;5.57;2.72;;;15.70;71.80;;;;;;5006343;28;20037;-68
2023/06/10 00:16:33;;;;;;;4.30;2.70;;;15.80;70.50;;;;;;4989636;28;20038;-68
2023/06/10 00:19:01;;;;;;;3.55;2.60;;;15.70;69.80;;;;;;4971841;28;20121;-68
2023/06/10 00:21:37;;;;;;;4.65;2.63;;;15.80;69.60;;;;;;4989434;28;20400;-68
2023/06/10 00:24:05;;;;;;;9.35;3.35;;;15.80;69.10;;;;;;5007259;28;20053;-69
2023/06/10 00:26:32;;;;;;;4.18;2.70;;;15.70;70.40;;;;;;5005682;28;20061;-69
2023/06/10 00:28:58;;;;;;;8.32;3.10;;;15.70;67.10;;;;;;4974963;28;20403;-68
2023/06/10 00:31:26;;;;;;;6.28;2.90;;;15.70;65.70;;;;;;5006536;28;20207;-68
2023/06/10 00:33:52;;;;;;;5.88;2.53;;;15.70;65.50;;;;;;4989587;28;20760;-70
2023/06/10 00:36:18;;;;;;;5.57;2.72;;;15.70;65.00;;;;;;4991000;28;20054;-68
2023/06/10 00:38:43;;;;;;;5.63;2.53;;;15.70;63.70;;;;;;5004590;28;20064;-68
2023/06/10 00:41:09;;;;;;;4.90;2.50;;;15.60;61.30;;;;;;4985358;28;20057;-68
2023/06/10 00:43:36;;;;;;;4.28;2.70;;;15.60;60.80;;;;;;5006424;28;20057;-68
2023/06/10 00:46:02;;;;;;;5.25;2.90;;;15.70;58.70;;;;;;4990591;28;20543;-69
2023/06/10 00:48:28;;;;;;;5.22;2.42;;;15.60;54.60;;;;;;4989036;28;20539;-68
2023/06/10 00:50:54;;;;;;;4.80;2.50;;;15.60;53.70;;;;;;5002980;28;20045;-68
2023/06/10 00:53:21;;;;;;;6.63;2.50;;;15.60;51.50;;;;;;4984056;28;20069;-69
2023/06/10 00:55:48;;;;;;;4.60;2.35;;;15.50;54.40;;;;;;4988935;28;20046;-68
2023/06/10 00:58:15;;;;;;;5.10;1.98;;;15.50;52.90;;;;;;5006738;28;20464;-67
2023/06/10 01:00:41;;;;;;;2.75;2.30;;;15.50;54.80;;;;;;5005008;28;20065;-68
2023/06/10 01:03:07;;;;;;;5.78;2.40;;;15.50;55.20;;;;;;4999007;28;20046;-68
2023/06/10 01:05:37;;;;;;;3.38;2.30;;;15.50;56.60;;;;;;4988941;28;20488;-68
2023/06/10 01:08:35;;;;;;;;;;;15.40;57.40;;;;;;4974474;28;20042;-68
2023/06/10 01:11:04;;;;;;;3.67;2.30;;;15.50;58.50;;;;;;4946998;28;19932;-67
2023/06/10 01:13:31;;;;;;;3.83;2.20;;;15.50;61.60;;;;;;4969651;28;20085;-68
2023/06/10 01:15:58;;;;;;;6.45;2.88;;;15.40;64.20;;;;;;5004261;28;20492;-68
2023/06/10 01:18:30;;;;;;;5.63;2.55;;;15.40;67.80;;;;;;4986893;28;20459;-68
2023/06/10 01:20:56;;;;;;;3.40;2.33;;;15.40;70.00;;;;;;5007284;28;20053;-68
2023/06/10 01:23:22;;;;;;;7.22;2.65;;;15.40;72.90;;;;;;4989511;28;20065;-68
2023/06/10 01:25:55;;;;;;;4.75;2.55;;;15.40;75.70;;;;;;4989040;28;20121;-68
2023/06/10 01:28:40;;;;;;;5.22;2.42;;;15.40;80.60;;;;;;4988814;28;20056;-68
2023/06/10 01:31:33;;;;;;;4.30;2.63;;;15.40;86.80;;;;;;5003502;28;20050;-68
2023/06/10 01:34:00;;;;;;;7.13;2.88;;;15.30;90.70;;;;;;4990033;28;20441;-68
2023/06/10 01:36:27;;;;;;;9.23;3.17;;;15.40;91.90;;;;;;4989766;28;20377;-67
2023/06/10 01:38:54;;;;;;;6.78;2.70;;;15.40;93.80;;;;;;5004965;28;20046;-69
2023/06/10 01:41:21;;;;;;;5.32;2.72;;;15.40;95.40;;;;;;5003107;28;20168;-68
2023/06/10 01:43:47;;;;;;;7.03;2.50;;;15.40;96.50;;;;;;5005858;28;20058;-68
2023/06/10 01:46:15;;;;;;;4.55;2.70;;;15.30;99.90;;;;;;4989908;28;20507;-68
2023/06/10 01:48:42;;;;;;;8.98;2.50;;;15.30;99.90;;;;;;4988305;28;20042;-68
2023/06/10 01:51:07;;;;;;;11.13;2.90;;;15.30;99.90;;;;;;4986613;28;20045;-68
2023/06/10 01:53:33;;;;;;;9.23;3.15;;;15.20;99.90;;;;;;4988482;28;20392;-68
2023/06/10 01:55:59;;;;;;;5.55;2.50;;;15.20;99.90;;;;;;4988853;28;20054;-68
2023/06/10 01:58:25;;;;;;;7.07;2.85;;;15.20;99.90;;;;;;4989832;28;20136;-68
2023/06/10 02:00:52;;;;;;;7.88;2.70;;;15.20;99.90;;;;;;5003333;28;20121;-68
2023/06/10 02:03:18;;;;;;;6.32;2.88;;;15.20;99.90;;;;;;4993038;28;20411;-68
2023/06/10 02:05:44;;;;;;;13.77;3.60;;;15.20;99.90;;;;;;4975968;28;20061;-68
2023/06/10 02:08:09;;;;;;;7.65;2.80;;;15.20;99.90;;;;;;5011218;28;20393;-68
2023/06/10 02:10:35;;;;;;;8.30;2.88;;;15.20;99.90;;;;;;4987691;28;20058;-68
2023/06/10 02:13:01;;;;;;;8.50;2.78;;;15.20;99.90;;;;;;5010546;28;20120;-68
2023/06/10 02:15:27;;;;;;;5.82;2.97;;;15.20;99.90;;;;;;4993109;28;20050;-68
2023/06/10 02:17:54;;;;;;;8.55;3.00;;;15.20;99.90;;;;;;4988686;28;20472;-68
2023/06/10 02:20:20;;;;;;;8.75;3.17;;;15.20;99.90;;;;;;4983885;28;20448;-68
2023/06/10 02:22:46;;;;;;;5.22;2.47;;;15.20;99.90;;;;;;5009191;28;20137;-68
2023/06/10 02:25:13;;;;;;;8.43;3.20;;;15.10;99.90;;;;;;4993485;28;20042;-69
2023/06/10 02:27:39;;;;;;;11.25;3.03;;;15.10;99.90;;;;;;5008175;28;20087;-69
2023/06/10 02:30:06;;;;;;;8.45;3.03;;;15.10;99.90;;;;;;5011151;28;20073;-68
2023/06/10 02:32:32;;;;;;;7.78;3.40;;;15.10;99.90;;;;;;4992847;28;20077;-68
2023/06/10 02:34:59;;;;;;;8.82;2.78;;;15.00;99.90;;;;;;4991978;28;20081;-68
2023/06/10 02:37:25;;;;;;;7.47;3.05;;;15.00;99.90;;;;;;4992288;28;20045;-68
2023/06/10 02:39:51;;;;;;;8.73;2.97;;;15.00;99.90;;;;;;5008376;28;20546;-68
2023/06/10 02:42:17;;;;;;;5.85;3.00;;;14.90;99.90;;;;;;5010672;28;20045;-69
2023/06/10 02:44:42;;;;;;;8.98;3.40;;;14.90;99.90;;;;;;4991055;28;20159;-69
2023/06/10 02:47:08;;;;;;;10.25;4.03;;;14.90;99.90;;;;;;5009808;28;20049;-68
2023/06/10 02:49:34;;;;;;;7.93;3.22;;;14.90;99.90;;;;;;4991561;28;20045;-68
2023/06/10 02:52:00;;;;;;;5.85;3.45;;;14.90;99.90;;;;;;4991431;28;20047;-68
2023/06/10 02:54:26;;;;;;;11.02;3.08;;;14.90;99.90;;;;;;4992352;28;20050;-68
2023/06/10 02:56:52;;;;;;;11.93;3.80;;;14.80;99.90;;;;;;5006904;28;20115;-69
2023/06/10 02:59:18;;;;;;;8.20;3.90;;;14.80;99.90;;;;;;5010446;28;20046;-68
2023/06/10 03:01:44;;;;;;;9.55;3.33;;;14.70;99.90;;;;;;4988427;28;20524;-68
2023/06/10 03:04:13;;;;;;;7.95;3.15;;;14.70;99.90;;;;;;4991909;28;20366;-68
2023/06/10 03:06:40;;;;;;;7.68;3.47;;;14.60;99.90;;;;;;4991311;28;20412;-68
2023/06/10 03:09:09;;;;;;;7.38;3.60;;;14.60;99.90;;;;;;4990161;28;20038;-68
2023/06/10 03:11:36;;;;;;;10.70;3.58;;;14.60;99.90;;;;;;4991361;28;20049;-68
2023/06/10 03:14:02;;;;;;;11.07;3.75;;;14.60;99.90;;;;;;5007397;28;20042;-68
2023/06/10 03:16:27;;;;;;;12.32;3.78;;;14.60;99.90;;;;;;4992424;28;20111;-68
2023/06/10 03:18:55;;;;;;;9.18;3.58;;;14.60;99.90;;;;;;4990409;28;20045;-68
2023/06/10 03:21:22;;;;;;;12.80;4.05;;;14.60;99.90;;;;;;5000627;28;20543;-68
2023/06/10 03:23:48;;;;;;;12.80;3.67;;;14.50;99.90;;;;;;4989879;28;20050;-69
2023/06/10 03:26:15;;;;;;;6.10;2.97;;;14.60;99.90;;;;;;4991617;28;20146;-67
2023/06/10 03:28:41;;;;;;;8.55;3.40;;;14.60;99.90;;;;;;4991148;28;20129;-67
2023/06/10 03:31:07;;;;;;;9.50;3.80;;;14.60;99.90;;;;;;4987394;28;20152;-68
2023/06/10 03:33:33;;;;;;;9.27;3.30;;;14.50;99.90;;;;;;4991700;28;20571;-68
2023/06/10 03:35:59;;;;;;;12.98;4.13;;;14.50;99.90;;;;;;4990145;28;20570;-68
2023/06/10 03:38:25;;;;;;;12.35;4.00;;;14.50;99.90;;;;;;4992078;28;20053;-68
2023/06/10 03:40:51;;;;;;;10.93;4.07;;;14.40;99.90;;;;;;4982177;28;20392;-68
2023/06/10 03:43:16;;;;;;;10.60;3.70;;;14.40;99.90;;;;;;4990606;28;20100;-68
2023/06/10 03:45:43;;;;;;;12.93;3.97;;;14.40;99.90;;;;;;4974209;28;20064;-68
2023/06/10 03:48:09;;;;;;;11.43;4.18;;;14.40;99.90;;;;;;5002482;28;20085;-69
2023/06/10 03:50:36;;;;;;;7.38;3.75;;;14.40;99.90;;;;;;5009105;28;20046;-68
2023/06/10 03:53:02;;;;;;;9.85;3.90;;;14.40;99.90;;;;;;4984917;28;20050;-69
2023/06/10 03:55:27;;;;;;;9.25;3.67;;;14.40;99.90;;;;;;4990983;28;20053;-68
2023/06/10 03:57:53;;;;;;;12.68;3.90;;;14.40;99.90;;;;;;4987088;28;20042;-68
2023/06/10 04:00:21;;;;;;;10.25;3.60;;;14.40;99.90;;;;;;4979146;28;20090;-68
2023/06/10 04:02:49;;;;;;;8.10;3.92;;;14.40;99.90;;;;;;4993491;28;20053;-68
2023/06/10 04:05:16;;;;;;;7.53;3.80;;;14.40;99.90;;;;;;5005714;28;20515;-68
2023/06/10 04:07:44;;;;;;;8.27;3.15;;;14.50;99.90;;;;;;4974859;28;20085;-68
2023/06/10 04:10:11;;;;;;;10.27;3.72;;;14.40;99.90;;;;;;4989999;28;20049;-68
2023/06/10 04:12:37;;;;;;;7.35;3.92;;;14.40;99.90;;;;;;4991366;28;20156;-67
2023/06/10 04:15:05;;;;;;;6.68;3.55;;;14.40;99.90;;;;;;4989006;28;20042;-67
2023/06/10 04:17:31;;;;;;;7.47;3.35;;;14.30;99.90;;;;;;4983212;28;20102;-68
2023/06/10 04:19:57;;;;;;;7.57;3.50;;;14.30;99.90;;;;;;4986216;28;20513;-68
2023/06/10 04:22:24;;;;;;;9.90;4.20;;;14.30;99.90;;;;;;4963983;28;20078;-68
2023/06/10 04:24:50;;;;;;;7.35;3.35;;;14.30;99.90;;;;;;4969348;28;20092;-67
2023/06/10 04:27:15;;;;;;;6.60;3.20;;;14.40;99.90;;;;;;4986705;28;20045;-67
2023/06/10 04:29:41;;;;;;;10.10;4.10;;;14.30;99.90;;;;;;4988899;28;20070;-68
2023/06/10 04:32:07;;;;;;;14.13;3.90;;;14.40;99.90;;;;;;4987019;28;20044;-68
2023/06/10 04:34:34;;;;;;;8.85;4.40;;;14.50;99.90;;;;;;4977764;28;20071;-68
2023/06/10 04:37:00;;;;;;;9.60;3.60;;;14.50;99.90;;;;;;4969650;28;20042;-68
2023/06/10 04:39:26;;;;;;;9.45;3.83;;;14.50;99.90;;;;;;4987119;28;20050;-68
2023/06/10 04:41:51;;;;;;;12.07;3.55;;;14.50;99.90;;;;;;4987414;28;20500;-68
2023/06/10 04:44:18;;;;;;;9.70;4.00;;;14.50;99.90;;;;;;4986444;28;20050;-68
2023/06/10 04:46:44;;;;;;;9.25;4.30;;;14.60;99.90;;;;;;4954821;28;20057;-68
2023/06/10 04:49:10;;;;;;;11.07;4.20;;;14.50;99.90;;;;;;4969889;28;20421;-68
2023/06/10 04:51:37;;;;;;;5.50;3.40;;;14.50;99.90;;;;;;4988945;28;20042;-68
2023/06/10 04:54:03;;;;;;;10.07;3.83;;;14.50;99.90;;;;;;4961132;28;20055;-68
2023/06/10 04:56:30;;;;;;;8.52;4.32;;;14.50;99.90;;;;;;4965457;28;20046;-68
2023/06/10 04:58:57;;;;;;;9.27;4.10;;;14.50;99.90;;;;;;4953024;28;20055;-68
2023/06/10 05:01:23;;;;;;;10.57;4.00;;;14.50;99.90;;;;;;4987153;28;20125;-68
2023/06/10 05:03:49;;;;;;;13.50;4.13;;;14.60;99.90;;;;;;4962708;28;20046;-68
2023/06/10 05:06:15;;;;;;;9.98;3.40;;;14.70;99.90;;;;;;4963552;28;20440;-67
2023/06/10 05:08:41;;;;;;;9.40;3.50;;;14.90;99.90;;;;;;4987969;28;20046;-68
2023/06/10 05:11:07;;;;;;;12.07;3.88;;;14.90;99.90;;;;;;4969613;28;20034;-68
2023/06/10 05:13:33;;;;;;;12.15;4.25;;;15.00;99.90;;;;;;4985839;28;20189;-68
2023/06/10 05:15:59;;;;;;;11.30;3.85;;;15.00;99.90;;;;;;4969275;28;20039;-68
2023/06/10 05:18:24;;;;;;;8.68;3.85;;;15.00;99.90;;;;;;4955805;28;20485;-68
2023/06/10 05:20:51;;;;;;;10.05;3.60;;;14.90;99.90;;;;;;4961352;28;20073;-68
2023/06/10 05:23:17;;;;;;;11.30;4.55;;;14.80;99.90;;;;;;4987411;28;20046;-68
2023/06/10 05:25:42;;;;;;;7.53;3.47;;;14.90;99.90;;;;;;4987876;28;20090;-67
2023/06/10 05:28:09;;;;;;;10.60;4.15;;;14.90;99.90;;;;;;4981548;28;20053;-67
2023/06/10 05:30:36;;;;;;;10.70;4.28;;;14.90;99.90;;;;;;4985273;28;20121;-68
2023/06/10 05:33:03;;;;;;;12.27;3.95;;;14.90;99.90;;;;;;4953125;28;20130;-69
2023/06/10 05:35:30;;;;;;;10.68;3.97;;;14.90;99.90;;;;;;4970751;28;20495;-68
2023/06/10 05:37:55;;;;;;;6.65;3.60;;;14.90;99.90;;;;;;4987997;28;20046;-67
2023/06/10 05:40:21;;;;;;;7.65;3.80;;;15.00;99.90;;;;;;4974183;28;20105;-67
2023/06/10 05:42:48;;;;;;;10.15;4.15;;;15.10;99.90;;;;;;4977045;28;20038;-67
2023/06/10 05:45:14;;;;;;;13.35;4.10;;;15.10;99.90;;;;;;4973600;28;20046;-68
2023/06/10 05:47:40;;;;;;;12.95;3.70;;;15.10;99.90;;;;;;4992201;28;20365;-68
2023/06/10 05:50:07;;;;;;;8.85;3.58;;;15.10;99.90;;;;;;4972427;28;20048;-68
2023/06/10 05:52:36;;;;;;;11.88;4.03;;;15.20;99.90;;;;;;4976786;28;20517;-68
2023/06/10 05:55:06;;;;;;;19.10;4.05;;;15.20;99.90;;;;;;4972523;28;20052;-68
2023/06/10 05:57:31;;;;;;;;;;;15.30;99.90;;;;;;4990494;28;20082;-68
2023/06/10 05:59:57;;;;;;;9.90;4.20;;;15.30;99.90;;;;;;4977175;28;19989;-67
2023/06/10 06:02:23;;;;;;;8.10;3.60;;;15.40;99.90;;;;;;4956683;28;20500;-67
2023/06/10 06:04:49;;;;;;;12.27;4.30;;;15.40;99.90;;;;;;4974051;28;20097;-68
2023/06/10 06:07:16;;;;;;;7.72;3.85;;;15.40;99.90;;;;;;4972585;28;20046;-67
2023/06/10 06:09:42;;;;;;;6.55;3.80;;;15.40;99.90;;;;;;4972245;28;20129;-67
2023/06/10 06:12:08;;;;;;;8.35;3.92;;;15.40;99.90;;;;;;4972622;28;20093;-67
2023/06/10 06:14:39;;;;;;;9.48;3.70;;;15.50;99.90;;;;;;4972963;28;20042;-68
2023/06/10 06:17:06;;;;;;;10.48;3.58;;;15.60;99.90;;;;;;4971905;28;20113;-68
2023/06/10 06:19:32;;;;;;;9.13;3.90;;;15.70;99.90;;;;;;4971335;28;20504;-67
2023/06/10 06:21:58;;;;;;;8.45;4.05;;;15.60;99.90;;;;;;4966521;28;20090;-68
2023/06/10 06:24:23;;;;;;;8.45;3.55;;;15.60;99.90;;;;;;4985962;28;20066;-67
2023/06/10 06:26:49;;;;;;;7.25;3.30;;;15.70;99.90;;;;;;4973607;28;20400;-67
2023/06/10 06:29:15;;;;;;;11.20;3.58;;;15.80;99.90;;;;;;4972377;28;20061;-67
2023/06/10 06:31:41;;;;;;;9.85;3.78;;;15.80;99.90;;;;;;4988996;28;20113;-68
2023/06/10 06:34:07;;;;;;;7.85;3.38;;;16.00;99.90;;;;;;4971804;28;20126;-67
2023/06/10 06:36:32;;;;;;;8.82;3.38;;;16.00;99.90;;;;;;4989550;28;20050;-67
2023/06/10 06:38:58;;;;;;;6.47;2.90;;;16.10;99.90;;;;;;4972530;28;20489;-66
2023/06/10 06:41:26;;;;;;;16.42;3.85;;;16.10;99.90;;;;;;4966919;28;20412;-68
2023/06/10 06:43:54;;;;;;;11.68;3.58;;;16.20;99.90;;;;;;4989524;28;20058;-67
2023/06/10 06:46:22;;;;;;;9.50;3.40;;;16.20;99.90;;;;;;4987663;28;20082;-67
2023/06/10 06:48:48;;;;;;;13.73;3.42;;;16.30;99.90;;;;;;4973204;28;20061;-67
2023/06/10 06:51:14;;;;;;;8.07;3.20;;;16.30;99.90;;;;;;4970099;28;20043;-67
2023/06/10 06:53:44;;;;;;;7.88;2.92;;;16.40;99.90;;;;;;4971918;28;20501;-68
2023/06/10 06:56:13;;;;;;;8.32;3.35;;;16.40;99.90;;;;;;4970806;28;20125;-68
2023/06/10 06:58:39;;;;;;;10.05;3.05;;;16.50;99.90;;;;;;4970545;28;20383;-67
2023/06/10 07:01:04;;;;;;;13.45;3.25;;;16.50;99.90;;;;;;4974281;28;20113;-67
2023/06/10 07:03:31;;;;;;;9.30;3.15;;;16.60;99.90;;;;;;4975297;28;20046;-67
2023/06/10 07:05:57;;;;;;;8.32;3.65;;;16.60;99.90;;;;;;4984762;28;20133;-67
2023/06/10 07:08:24;;;;;;;8.90;3.05;;;16.70;99.90;;;;;;4976548;28;20127;-68
2023/06/10 07:10:50;;;;;;;9.98;2.70;;;16.70;99.90;;;;;;4969260;28;20136;-67
2023/06/10 07:13:16;;;;;;;9.82;3.38;;;16.80;99.90;;;;;;4971323;28;20130;-66
2023/06/10 07:15:42;;;;;;;9.70;3.05;;;16.90;99.90;;;;;;4987596;28;20086;-67
2023/06/10 07:18:09;;;;;;;9.32;3.00;;;17.00;99.90;;;;;;4955894;28;20097;-66
2023/06/10 07:20:34;;;;;;;9.68;3.15;;;17.10;99.90;;;;;;4955431;28;20058;-67
2023/06/10 07:23:00;;;;;;;10.95;3.95;;;17.30;99.90;;;;;;4984918;28;20397;-68
2023/06/10 07:25:26;;;;;;;13.55;3.60;;;17.40;99.90;;;;;;4964995;28;20046;-67
2023/06/10 07:27:52;;;;;;;7.88;2.83;;;17.60;99.90;;;;;;4977091;28;20504;-67
2023/06/10 07:30:17;;;;;;;8.43;2.83;;;17.70;99.90;;;;;;4985197;28;20051;-67
2023/06/10 07:32:44;;;;;;;7.00;2.70;;;17.80;99.90;;;;;;4988918;28;20104;-67
2023/06/10 07:35:11;;;;;;;8.15;3.25;;;18.00;99.90;;;;;;4988883;28;20457;-67
2023/06/10 07:37:38;;;;;;;7.57;2.80;;;18.10;99.90;;;;;;4970031;28;20370;-67
2023/06/10 07:40:04;;;;;;;13.80;2.97;;;18.40;99.90;;;;;;4972042;28;20054;-67
2023/06/10 07:42:33;;;;;;;5.97;2.60;;;18.50;99.90;;;;;;4988631;28;20042;-67
2023/06/10 07:44:58;;;;;;;10.80;3.15;;;18.80;99.90;;;;;;4989473;28;20038;-68
2023/06/10 07:47:24;;;;;;;6.55;2.58;;;19.00;96.50;;;;;;4966707;28;20050;-67
2023/06/10 07:49:50;;;;;;;6.68;2.53;;;19.30;97.10;;;;;;4975466;28;20034;-67
2023/06/10 07:52:16;;;;;;;8.45;2.88;;;19.60;99.30;;;;;;4970471;28;20034;-67
2023/06/10 07:54:41;;;;;;;8.18;2.78;;;20.00;87.20;;;;;;4981351;28;20050;-67
2023/06/10 07:57:07;;;;;;;7.28;2.92;;;20.20;84.90;;;;;;4970774;28;20129;-67
2023/06/10 07:59:34;;;;;;;6.05;3.28;;;20.30;82.00;;;;;;4964837;28;20057;-67
2023/06/10 08:01:59;;;;;;;12.45;3.33;;;20.50;75.00;;;;;;4993040;28;20112;-67
2023/06/10 08:04:25;;;;;;;8.55;2.90;;;20.70;67.60;;;;;;4985776;28;20904;-68
2023/06/10 08:06:52;;;;;;;5.30;2.65;;;20.80;76.20;;;;;;4969453;28;20081;-67
2023/06/10 08:09:19;;;;;;;7.82;2.80;;;21.00;68.20;;;;;;4984678;28;20089;-67
2023/06/10 08:11:47;;;;;;;8.20;3.05;;;21.00;52.90;;;;;;4987341;28;20484;-67
2023/06/10 08:14:12;;;;;;;9.20;3.33;;;21.10;58.20;;;;;;4971093;28;20133;-67
2023/06/10 08:16:39;;;;;;;5.40;2.63;;;21.20;43.20;;;;;;4970881;28;20121;-67
2023/06/10 08:19:05;;;;;;;10.38;2.42;;;21.20;39.00;;;;;;4991881;28;20038;-69
2023/06/10 08:21:31;;;;;;;10.07;2.63;;;21.40;45.40;;;;;;5005555;28;20111;-68
2023/06/10 08:23:57;;;;;;;12.27;2.90;;;21.50;23.70;;;;;;4990847;28;20519;-67
2023/06/10 08:26:23;;;;;;;8.32;2.88;;;21.60;34.60;;;;;;4989310;28;20500;-68
2023/06/10 08:28:50;;;;;;;7.97;2.85;;;21.70;28.70;;;;;;4990478;28;20049;-67
2023/06/10 08:31:16;;;;;;;10.10;2.35;;;21.90;28.70;;;;;;5005121;28;20506;-67
2023/06/10 08:33:42;;;;;;;6.60;2.95;;;22.20;25.90;;;;;;4971060;28;20065;-67
2023/06/10 08:36:08;;;;;;;5.45;2.75;;;22.30;26.50;;;;;;4982355;28;20060;-67
2023/06/10 08:38:35;;;;;;;8.15;2.72;;;22.20;22.80;;;;;;5007736;28;20038;-67
2023/06/10 08:41:04;;;;;;;;;;;22.30;16.70;;;;;;5003411;28;20432;-68
2023/06/10 08:43:43;;;;;;;7.82;2.88;;;22.20;16.40;;;;;;5002185;28;20489;-68
2023/06/10 08:46:10;;;;;;;13.27;3.40;;;22.20;17.20;;;;;;4982738;28;20061;-68
2023/06/10 08:48:41;;;;;;;7.78;3.03;;;22.30;21.80;;;;;;4989607;28;20137;-67
2023/06/10 08:51:10;;;;;;;5.25;2.70;;;22.50;20.90;;;;;;4988739;28;20054;-67
2023/06/10 08:53:42;;;;;;;7.03;2.72;;;22.60;24.60;;;;;;4980701;28;20046;-67
2023/06/10 08:56:10;;;;;;;4.57;2.75;;;22.70;18.90;;;;;;5006375;28;20049;-67
2023/06/10 08:58:41;;;;;;;9.48;2.80;;;22.90;14.50;;;;;;4990431;28;20083;-68
2023/06/10 09:01:09;;;;;;;7.28;2.88;;;23.00;19.10;;;;;;5005815;28;20042;-67
2023/06/10 09:03:37;;;;;;;9.13;2.75;;;23.10;9.20;;;;;;4990700;28;20111;-67
2023/06/10 09:06:05;;;;;;;9.10;3.00;;;23.00;11.60;;;;;;4989236;28;20572;-67
2023/06/10 09:08:34;;;;;;;6.22;3.20;;;22.90;10.10;;;;;;4989597;28;20527;-67
2023/06/10 09:11:00;;;;;;;6.38;3.17;;;22.70;13.60;;;;;;5007749;28;20038;-67
2023/06/10 09:13:26;;;;;;;7.80;3.13;;;22.80;19.90;;;;;;4983513;28;20570;-67
2023/06/10 09:15:52;;;;;;;11.10;3.08;;;22.80;12.20;;;;;;4989105;28;20053;-68
2023/06/10 09:18:18;;;;;;;7.53;2.80;;;22.70;11.60;;;;;;5004798;28;20058;-67
2023/06/10 09:20:44;;;;;;;11.65;2.80;;;22.80;19.70;;;;;;4989730;28;20057;-67
2023/06/10 09:23:10;;;;;;;9.75;3.22;;;22.90;10.50;;;;;;5004778;28;20044;-67
2023/06/10 09:25:38;;;;;;;8.13;3.08;;;23.00;11.90;;;;;;5007186;28;20451;-67
2023/06/10 09:28:04;;;;;;;8.30;2.92;;;22.90;11.00;;;;;;5006435;28;20045;-68
2023/06/10 09:30:34;;;;;;;6.28;3.00;;;23.00;15.10;;;;;;5013567;28;20041;-67
2023/06/10 09:33:02;;;;;;;3.67;2.45;;;22.90;10.00;;;;;;4999444;28;20078;-67
2023/06/10 09:35:29;;;;;;;6.88;2.75;;;23.00;10.00;;;;;;4997975;28;20104;-67
2023/06/10 09:37:57;;;;;;;7.30;3.33;;;22.90;8.00;;;;;;5006560;28;20050;-67
2023/06/10 09:40:23;;;;;;;7.35;2.72;;;23.00;10.20;;;;;;4999252;28;20062;-67
2023/06/10 09:42:57;;;;;;;7.00;3.20;;;23.10;20.40;;;;;;4997541;28;20050;-67
2023/06/10 09:45:23;;;;;;;6.45;2.75;;;23.20;12.30;;;;;;4996558;28;20141;-68
2023/06/10 09:47:53;;;;;;;6.68;2.40;;;23.30;13.50;;;;;;5005123;28;20034;-67
2023/06/10 09:50:20;;;;;;;6.55;2.45;;;23.40;12.40;;;;;;5007016;28;20046;-67
2023/06/10 09:52:47;;;;;;;8.35;3.03;;;23.50;18.90;;;;;;5001043;28;20070;-67
2023/06/10 09:55:13;;;;;;;8.65;2.78;;;23.60;12.00;;;;;;4994379;28;20626;-67
2023/06/10 09:57:41;;;;;;;8.07;2.75;;;23.70;16.00;;;;;;4996590;28;20401;-67
2023/06/10 10:00:10;;;;;;;8.57;2.42;;;23.70;9.90;;;;;;5005924;28;20781;-67
2023/06/10 10:02:51;;;;;;;7.10;3.00;;;23.70;5.20;;;;;;4989606;28;20136;-67
2023/06/10 10:05:19;;;;;;;9.15;2.80;;;23.60;10.30;;;;;;4969918;28;20046;-67
2023/06/10 10:07:45;;;;;;;8.13;2.42;;;23.70;7.90;;;;;;4989248;28;20062;-67
2023/06/10 10:10:13;;;;;;;5.05;2.67;;;23.70;15.20;;;;;;4986744;28;20071;-67
2023/06/10 10:12:40;;;;;;;4.95;2.80;;;23.70;10.40;;;;;;5006567;28;20046;-67
2023/06/10 10:15:10;;;;;;;6.60;3.08;;;23.80;6.60;;;;;;4985765;28;20542;-67
2023/06/10 10:18:06;;;;;;;6.80;2.55;;;23.70;1.30;;;;;;4976794;28;20414;-67
2023/06/10 10:20:34;;;;;;;11.40;2.95;;;23.60;11.60;;;;;;4988389;28;20053;-67
2023/06/10 10:23:03;;;;;;;7.97;2.70;;;23.70;1.60;;;;;;5004587;28;20052;-68
2023/06/10 10:25:42;;;;;;;6.82;2.88;;;23.60;8.50;;;;;;4992928;28;20132;-67
2023/06/10 10:28:10;;;;;;;10.80;2.88;;;23.60;7.40;;;;;;5002901;28;20042;-67
2023/06/10 10:30:42;;;;;;;6.82;2.80;;;23.60;2.90;;;;;;5007335;28;20055;-67
2023/06/10 10:33:23;;;;;;;6.07;2.72;;;23.70;4.40;;;;;;4997707;28;20056;-67
2023/06/10 10:35:49;;;;;;;6.03;2.58;;;23.80;12.60;;;;;;4990781;28;20041;-67
2023/06/10 10:38:15;;;;;;;7.80;2.92;;;23.80;7.60;;;;;;5009271;28;20121;-68
2023/06/10 10:40:44;;;;;;;6.28;2.58;;;23.80;8.70;;;;;;4985887;28;20053;-67
2023/06/10 10:43:10;;;;;;;5.25;2.75;;;23.90;3.00;;;;;;4999474;28;20046;-67
2023/06/10 10:45:36;;;;;;;14.85;2.85;;;23.90;9.60;;;;;;5008548;28;20042;-67
2023/06/10 10:48:12;;;;;;;11.63;3.50;;;24.00;10.00;;;;;;4986545;28;20488;-68
2023/06/10 10:50:38;;;;;;;7.13;2.97;;;24.10;10.40;;;;;;4980267;28;20072;-67
2023/06/10 10:53:06;;;;;;;7.65;2.50;;;24.10;14.80;;;;;;4981917;28;20050;-67
2023/06/10 10:55:33;;;;;;;7.63;2.45;;;24.20;4.00;;;;;;5004951;28;20053;-68
2023/06/10 10:58:07;;;;;;;8.52;3.40;;;24.10;10.60;;;;;;5007156;28;20124;-68
2023/06/10 11:00:38;;;;;;;5.70;2.65;;;24.00;1.20;;;;;;4999393;28;20357;-67
2023/06/10 11:03:06;;;;;;;15.68;3.30;;;23.90;3.90;;;;;;4990369;28;20045;-68
2023/06/10 11:05:49;;;;;;;5.80;2.57;;;24.00;8.80;;;;;;4989716;28;20100;-67
2023/06/10 11:08:33;;;;;;;6.63;3.10;;;24.10;7.60;;;;;;4984081;28;20351;-67
2023/06/10 11:10:59;;;;;;;6.80;2.67;;;24.30;1.60;;;;;;5004122;28;20120;-67
2023/06/10 11:13:27;;;;;;;9.60;3.28;;;24.20;4.90;;;;;;4982447;28;20056;-67
2023/06/10 11:15:57;;;;;;;5.13;3.22;;;24.20;8.40;;;;;;5007878;28;20060;-68
2023/06/10 11:18:27;;;;;;;5.32;2.80;;;24.10;2.50;;;;;;5004385;28;20054;-67
2023/06/10 11:20:55;;;;;;;4.15;2.63;;;24.20;7.80;;;;;;4991503;28;20072;-68
2023/06/10 11:23:33;;;;;;;7.85;3.10;;;24.20;6.70;;;;;;4995031;28;20292;-67
2023/06/10 11:26:14;;;;;;;4.70;2.45;;;24.20;8.20;;;;;;4996421;28;20050;-67
2023/06/10 11:29:01;;;;;;;8.65;2.58;;;24.20;3.60;;;;;;4996931;28;20046;-67
2023/06/10 11:31:41;;;;;;;5.90;2.70;;;24.20;5.60;;;;;;4990425;28;20123;-67
2023/06/10 11:34:14;;;;;;;5.25;2.80;;;24.20;10.20;;;;;;5004152;28;20459;-67
2023/06/10 11:36:42;;;;;;;9.57;2.78;;;24.10;5.40;;;;;;5005458;28;20038;-67
2023/06/10 11:39:09;;;;;;;5.38;2.35;;;24.20;3.30;;;;;;5008465;28;20049;-68
2023/06/10 11:41:37;;;;;;;3.65;2.30;;;24.20;6.70;;;;;;5008827;28;20037;-68
2023/06/10 11:44:12;;;;;;;5.18;2.50;;;24.10;7.70;;;;;;5007410;28;20049;-68
2023/06/10 11:46:38;;;;;;;6.78;2.58;;;24.10;8.90;;;;;;4990887;28;20461;-67
2023/06/10 11:49:05;;;;;;;6.93;2.70;;;24.20;6.20;;;;;;4972141;28;20050;-68
2023/06/10 11:51:40;;;;;;;4.72;2.47;;;24.30;5.50;;;;;;5008823;28;20442;-68
2023/06/10 11:54:08;;;;;;;6.53;2.72;;;24.20;1.00;;;;;;5003328;28;20059;-67
2023/06/10 11:56:34;;;;;;;5.47;2.60;;;24.20;2.90;;;;;;5006847;28;20104;-68
2023/06/10 11:59:06;;;;;;;6.15;2.65;;;24.30;12.20;;;;;;4988697;28;20497;-68
2023/06/10 12:01:34;;;;;;;9.20;2.53;;;24.20;1.00;;;;;;5005220;28;20579;-68
2023/06/10 12:04:12;;;;;;;6.67;2.37;;;24.10;3.90;;;;;;5007035;28;20112;-67
2023/06/10 12:06:58;;;;;;;7.47;2.77;;;23.90;3.60;;;;;;4999267;28;20133;-68
2023/06/10 12:09:26;;;;;;;6.68;2.22;;;23.90;3.00;;;;;;4999956;28;20894;-68
2023/06/10 12:12:06;;;;;;;3.33;2.25;;;23.60;2.60;;;;;;4982590;28;20046;-67
2023/06/10 12:14:57;;;;;;;8.60;2.40;;;23.60;3.10;;;;;;4990151;28;20492;-68
2023/06/10 12:17:32;;;;;;;4.20;2.33;;;23.70;15.20;;;;;;4991090;28;20580;-69
2023/06/10 12:20:08;;;;;;;4.47;2.30;;;23.70;6.80;;;;;;4989881;28;20125;-68
2023/06/10 12:22:42;;;;;;;3.70;2.17;;;23.90;5.70;;;;;;5007388;28;20100;-68
2023/06/10 12:25:09;;;;;;;7.30;2.50;;;24.00;7.10;;;;;;4984752;28;20042;-68
2023/06/10 12:27:38;;;;;;;7.35;2.30;;;24.10;7.30;;;;;;5004950;28;20527;-68
2023/06/10 12:30:07;;;;;;;4.77;2.27;;;24.10;11.50;;;;;;4976801;28;20045;-68
2023/06/10 12:32:36;;;;;;;5.25;1.88;;;24.10;4.70;;;;;;5006561;28;20432;-68
2023/06/10 12:35:04;;;;;;;5.68;2.05;;;24.10;5.10;;;;;;5008140;28;20046;-68
2023/06/10 12:37:30;;;;;;;7.88;2.42;;;24.10;5.40;;;;;;4989599;28;20128;-69
2023/06/10 12:39:56;;;;;;;5.07;2.08;;;24.20;10.00;;;;;;4989996;28;20133;-68
2023/06/10 12:42:25;;;;;;;3.20;2.20;;;24.20;1.00;;;;;;5000428;28;20077;-67
2023/06/10 12:44:54;;;;;;;6.40;2.30;;;24.20;1.00;;;;;;5006423;28;20045;-68
2023/06/10 12:47:19;;;;;;;7.32;2.22;;;24.10;4.70;;;;;;5005966;28;20447;-68
2023/06/10 12:49:46;;;;;;;5.82;2.25;;;24.20;8.20;;;;;;5005360;28;20046;-68
2023/06/10 12:52:11;;;;;;;11.57;2.67;;;24.30;1.50;;;;;;5006468;28;20080;-68